createdAt,value
2018-09-26T00:00:06.657Z,13.63
2018-09-26T00:02:41.304Z,13.58
2018-09-26T00:05:11.244Z,13.61
2018-09-26T00:07:40.938Z,13.79
2018-09-26T00:10:10.829Z,13.45
2018-09-26T00:12:41.530Z,13.60
2018-09-26T00:15:11.303Z,13.59
2018-09-26T00:17:41.054Z,13.72
2018-09-26T00:20:11.330Z,13.77
2018-09-26T00:22:41.339Z,13.78
2018-09-26T00:25:11.139Z,13.82
2018-09-26T00:27:40.881Z,13.72
2018-09-26T00:30:11.174Z,13.69
2018-09-26T00:32:41.057Z,13.61
2018-09-26T00:35:10.890Z,13.51
2018-09-26T00:37:40.791Z,13.66
2018-09-26T00:40:10.651Z,13.43
2018-09-26T00:42:40.505Z,13.37
2018-09-26T00:45:10.195Z,13.59
2018-09-26T00:47:39.872Z,13.00
2018-09-26T00:50:09.765Z,12.91
2018-09-26T00:52:39.507Z,12.98
2018-09-26T00:55:09.389Z,12.96
2018-09-26T00:57:39.092Z,12.07
2018-09-26T01:00:08.869Z,11.39
2018-09-26T01:02:38.539Z,11.22
2018-09-26T01:05:08.446Z,11.25
2018-09-26T01:07:38.158Z,11.78
2018-09-26T01:10:08.148Z,12.15
2018-09-26T01:12:37.900Z,12.54
2018-09-26T01:15:07.697Z,11.67
2018-09-26T01:17:37.548Z,11.42
2018-09-26T01:20:07.387Z,11.43
2018-09-26T01:22:37.252Z,11.99
2018-09-26T01:25:07.518Z,12.36
2018-09-26T01:27:37.108Z,12.37
2018-09-26T01:30:07.677Z,12.23
2018-09-26T01:32:38.267Z,12.94
2018-09-26T01:35:08.085Z,13.00
2018-09-26T01:37:37.893Z,12.77
2018-09-26T01:40:07.818Z,11.72
2018-09-26T01:42:37.994Z,10.96
2018-09-26T01:45:07.845Z,11.06
2018-09-26T01:47:37.649Z,11.24
2018-09-26T01:50:07.440Z,12.23
2018-09-26T01:52:37.246Z,11.92
2018-09-26T01:55:07.096Z,11.96
2018-09-26T01:57:36.953Z,12.75
2018-09-26T02:00:07.077Z,12.83
2018-09-26T02:02:36.809Z,12.77
2018-09-26T02:05:06.624Z,13.12
2018-09-26T02:07:36.504Z,12.77
2018-09-26T02:10:07.053Z,13.35
2018-09-26T02:12:36.778Z,13.33
2018-09-26T02:15:06.602Z,13.08
2018-09-26T02:17:36.259Z,12.26
2018-09-26T02:20:06.149Z,12.07
2018-09-26T02:22:35.971Z,11.43
2018-09-26T02:25:05.959Z,11.51
2018-09-26T02:27:35.703Z,11.80
2018-09-26T02:30:05.540Z,11.67
2018-09-26T02:32:35.300Z,11.54
2018-09-26T02:35:05.539Z,12.24
2018-09-26T02:37:35.297Z,12.20
2018-09-26T02:40:05.270Z,12.93
2018-09-26T02:42:34.974Z,13.17
2018-09-26T02:45:04.701Z,13.28
2018-09-26T02:47:34.578Z,13.10
2018-09-26T02:50:04.441Z,13.36
2018-09-26T02:52:34.303Z,13.24
2018-09-26T02:55:04.172Z,12.61
2018-09-26T02:57:34.062Z,12.32
2018-09-26T03:00:03.957Z,11.75
2018-09-26T03:02:33.728Z,11.65
2018-09-26T03:05:03.445Z,12.27
2018-09-26T03:07:33.271Z,12.55
2018-09-26T03:10:02.977Z,12.70
2018-09-26T03:12:32.702Z,12.83
2018-09-26T03:15:02.554Z,12.88
2018-09-26T03:17:32.419Z,12.61
2018-09-26T03:20:02.279Z,11.79
2018-09-26T03:22:32.152Z,11.96
2018-09-26T03:25:02.196Z,12.20
2018-09-26T03:27:32.728Z,12.45
2018-09-26T03:30:03.151Z,12.69
2018-09-26T03:32:34.073Z,12.59
2018-09-26T03:35:04.386Z,12.51
2018-09-26T03:37:35.097Z,12.39
2018-09-26T03:40:04.859Z,12.49
2018-09-26T03:42:35.205Z,12.44
2018-09-26T03:45:05.156Z,12.47
2018-09-26T03:47:34.889Z,12.43
2018-09-26T03:50:04.622Z,12.12
2018-09-26T03:52:34.387Z,12.16
2018-09-26T03:55:04.212Z,11.73
2018-09-26T03:57:33.993Z,11.75
2018-09-26T04:00:03.590Z,11.98
2018-09-26T04:02:33.208Z,12.12
2018-09-26T04:05:02.980Z,11.89
2018-09-26T04:07:32.825Z,11.99
2018-09-26T04:10:02.627Z,12.14
2018-09-26T04:12:32.454Z,11.93
2018-09-26T04:15:02.340Z,12.36
2018-09-26T04:17:31.973Z,12.24
2018-09-26T04:20:01.692Z,12.12
2018-09-26T04:22:31.560Z,12.13
2018-09-26T04:25:01.534Z,11.64
2018-09-26T04:27:31.351Z,11.13
2018-09-26T04:30:01.056Z,11.64
2018-09-26T04:32:30.954Z,11.03
2018-09-26T04:35:00.684Z,11.23
2018-09-26T04:37:30.662Z,11.28
2018-09-26T04:40:00.717Z,11.42
2018-09-26T04:42:30.649Z,11.38
2018-09-26T04:45:00.352Z,11.37
2018-09-26T04:47:30.220Z,11.38
2018-09-26T04:49:59.942Z,10.78
2018-09-26T04:52:29.723Z,10.62
2018-09-26T04:54:59.482Z,11.35
2018-09-26T04:57:29.073Z,11.37
2018-09-26T04:59:59.055Z,11.50
2018-09-26T05:02:28.765Z,11.21
2018-09-26T05:04:58.645Z,11.71
2018-09-26T05:07:28.392Z,11.41
2018-09-26T05:09:58.209Z,11.95
2018-09-26T05:12:28.186Z,11.74
2018-09-26T05:14:58.028Z,11.87
2018-09-26T05:17:27.805Z,12.33
2018-09-26T05:19:58.009Z,12.52
2018-09-26T05:22:28.315Z,12.35
2018-09-26T05:24:57.948Z,12.55
2018-09-26T05:27:27.636Z,12.64
2018-09-26T05:29:57.386Z,12.84
2018-09-26T05:32:27.206Z,13.10
2018-09-26T05:34:56.988Z,13.32
2018-09-26T05:37:26.772Z,13.58
2018-09-26T05:39:56.592Z,13.62
2018-09-26T05:42:26.629Z,12.91
2018-09-26T05:44:56.433Z,13.31
2018-09-26T05:47:26.505Z,13.26
2018-09-26T05:49:56.332Z,13.18
2018-09-26T05:52:26.461Z,14.37
2018-09-26T05:54:57.041Z,15.12
2018-09-26T05:57:26.919Z,15.27
2018-09-26T05:59:56.721Z,15.83
2018-09-26T06:02:27.106Z,16.01
2018-09-26T06:04:56.854Z,16.56
2018-09-26T06:07:26.700Z,16.32
2018-09-26T06:09:56.490Z,16.65
2018-09-26T06:12:26.252Z,16.32
2018-09-26T06:14:56.104Z,16.68
2018-09-26T06:17:25.932Z,16.98
2018-09-26T06:19:55.675Z,16.61
2018-09-26T06:22:25.448Z,17.33
2018-09-26T06:24:55.337Z,18.19
2018-09-26T06:27:25.258Z,18.39
2018-09-26T06:29:55.055Z,18.54
2018-09-26T06:32:25.122Z,18.48
2018-09-26T06:34:55.090Z,18.93
2018-09-26T06:37:24.899Z,18.53
2018-09-26T06:39:54.733Z,18.69
2018-09-26T06:42:24.506Z,18.67
2018-09-26T06:44:54.533Z,19.26
2018-09-26T06:47:24.540Z,18.69
2018-09-26T06:49:54.437Z,17.97
2018-09-26T06:52:24.313Z,18.79
2018-09-26T06:54:54.241Z,18.90
2018-09-26T06:57:24.138Z,19.64
2018-09-26T06:59:53.957Z,19.40
2018-09-26T07:02:23.767Z,19.72
2018-09-26T07:04:53.633Z,20.37
2018-09-26T07:07:23.434Z,19.95
2018-09-26T07:09:53.345Z,19.41
2018-09-26T07:12:23.047Z,20.81
2018-09-26T07:14:52.739Z,20.63
2018-09-26T07:17:22.579Z,20.63
2018-09-26T07:19:52.493Z,20.32
2018-09-26T07:22:22.272Z,20.82
2018-09-26T07:24:52.029Z,21.36
2018-09-26T07:27:21.937Z,20.74
2018-09-26T07:29:51.796Z,21.16
2018-09-26T07:32:21.552Z,21.69
2018-09-26T07:34:51.377Z,21.68
2018-09-26T07:37:21.210Z,21.51
2018-09-26T07:39:51.124Z,21.30
2018-09-26T07:42:20.989Z,21.40
2018-09-26T07:44:50.694Z,22.46
2018-09-26T07:47:20.471Z,21.88
2018-09-26T07:49:50.305Z,21.53
2018-09-26T07:52:20.114Z,22.02
2018-09-26T07:54:49.929Z,22.10
2018-09-26T07:57:19.693Z,21.75
2018-09-26T07:59:49.559Z,22.22
2018-09-26T08:02:19.304Z,22.66
2018-09-26T08:04:49.280Z,23.06
2018-09-26T08:07:19.050Z,23.65
2018-09-26T08:09:48.874Z,23.73
2018-09-26T08:12:18.678Z,22.67
2018-09-26T08:14:48.451Z,22.67
2018-09-26T08:17:18.242Z,22.21
2018-09-26T08:19:47.982Z,22.50
2018-09-26T08:22:17.794Z,23.84
2018-09-26T08:24:47.668Z,23.81
2018-09-26T08:27:17.381Z,21.08
2018-09-26T08:29:47.253Z,21.24
2018-09-26T08:32:17.008Z,20.58
2018-09-26T08:34:46.844Z,21.40
2018-09-26T08:37:16.729Z,22.65
2018-09-26T08:39:46.484Z,22.63
2018-09-26T08:42:16.265Z,23.81
2018-09-26T08:44:46.085Z,21.95
2018-09-26T08:47:15.871Z,22.16
2018-09-26T08:49:45.901Z,20.77
2018-09-26T08:52:15.640Z,21.72
2018-09-26T08:54:45.440Z,21.43
2018-09-26T08:57:15.277Z,21.42
2018-09-26T08:59:45.070Z,20.42
2018-09-26T09:02:14.785Z,20.38
2018-09-26T09:04:44.553Z,21.08
2018-09-26T09:07:14.262Z,20.83
2018-09-26T09:09:44.167Z,21.52
2018-09-26T09:12:14.070Z,21.30
2018-09-26T09:14:44.062Z,22.42
2018-09-26T09:17:13.686Z,22.89
2018-09-26T09:19:43.460Z,21.64
2018-09-26T09:22:13.189Z,21.02
2018-09-26T09:24:42.998Z,20.27
2018-09-26T09:27:12.922Z,20.53
2018-09-26T09:29:42.662Z,20.79
2018-09-26T09:32:12.427Z,21.04
2018-09-26T09:34:42.312Z,21.63
2018-09-26T09:37:12.322Z,19.97
2018-09-26T09:39:42.088Z,19.00
2018-09-26T09:42:11.863Z,18.99
2018-09-26T09:44:41.554Z,20.00
2018-09-26T09:47:11.244Z,19.82
2018-09-26T09:49:41.036Z,20.82
2018-09-26T09:52:11.166Z,20.60
2018-09-26T09:54:40.988Z,21.30
2018-09-26T09:57:10.815Z,20.98
2018-09-26T09:59:40.523Z,21.21
2018-09-26T10:02:10.403Z,21.56
2018-09-26T10:04:40.130Z,21.59
2018-09-26T10:07:10.060Z,23.33
2018-09-26T10:09:39.953Z,23.50
2018-09-26T10:12:09.626Z,24.75
2018-09-26T10:14:39.458Z,24.08
2018-09-26T10:17:09.212Z,23.70
2018-09-26T10:19:38.917Z,22.99
2018-09-26T10:22:08.724Z,22.96
2018-09-26T10:24:38.780Z,22.41
2018-09-26T10:27:08.660Z,23.84
2018-09-26T10:29:38.327Z,24.50
2018-09-26T10:32:08.359Z,24.27
2018-09-26T10:34:38.200Z,24.85
2018-09-26T10:37:08.078Z,25.04
2018-09-26T10:39:37.946Z,24.54
2018-09-26T10:42:07.872Z,25.80
2018-09-26T10:44:37.700Z,26.49
2018-09-26T10:47:07.418Z,26.37
2018-09-26T10:49:37.307Z,28.01
2018-09-26T10:52:07.154Z,26.82
2018-09-26T10:54:37.299Z,27.38
2018-09-26T10:57:07.123Z,27.52
2018-09-26T10:59:36.942Z,26.29
2018-09-26T11:02:06.764Z,26.99
2018-09-26T11:04:36.623Z,27.59
2018-09-26T11:07:06.349Z,27.51
2018-09-26T11:09:36.250Z,27.87
2018-09-26T11:12:06.214Z,26.76
2018-09-26T11:14:36.082Z,24.56
2018-09-26T11:17:05.848Z,24.93
2018-09-26T11:19:35.574Z,25.77
2018-09-26T11:22:05.471Z,26.81
2018-09-26T11:24:35.462Z,26.97
2018-09-26T11:27:05.359Z,26.85
2018-09-26T11:29:35.502Z,25.76
2018-09-26T11:32:05.110Z,25.39
2018-09-26T11:34:34.952Z,27.00
2018-09-26T11:37:04.684Z,26.23
2018-09-26T11:39:34.571Z,27.07
2018-09-26T11:42:04.504Z,26.34
2018-09-26T11:44:34.472Z,26.67
2018-09-26T11:47:04.329Z,25.85
2018-09-26T11:49:34.198Z,23.50
2018-09-26T11:52:04.127Z,23.17
2018-09-26T11:54:33.994Z,23.77
2018-09-26T11:57:04.179Z,25.33
2018-09-26T11:59:33.906Z,26.04
2018-09-26T12:02:03.772Z,24.85
2018-09-26T12:04:33.539Z,25.55
2018-09-26T12:07:03.393Z,24.45
2018-09-26T12:09:33.363Z,23.22
2018-09-26T12:12:03.188Z,24.29
2018-09-26T12:14:32.965Z,24.27
2018-09-26T12:17:02.694Z,23.44
2018-09-26T12:19:32.426Z,22.48
2018-09-26T12:22:02.255Z,22.08
2018-09-26T12:24:32.076Z,22.53
2018-09-26T12:27:02.023Z,24.05
2018-09-26T12:29:31.723Z,24.72
2018-09-26T12:32:01.434Z,24.33
2018-09-26T12:34:31.357Z,23.23
2018-09-26T12:37:01.066Z,22.92
2018-09-26T12:39:30.989Z,22.09
2018-09-26T12:42:00.768Z,22.35
2018-09-26T12:44:30.569Z,22.08
2018-09-26T12:47:00.340Z,21.97
2018-09-26T12:49:30.080Z,21.62
2018-09-26T12:52:01.271Z,21.92
2018-09-26T12:54:30.902Z,22.26
2018-09-26T12:57:01.387Z,20.71
2018-09-26T12:59:32.035Z,20.27
2018-09-26T13:02:02.897Z,20.45
2018-09-26T13:04:33.365Z,20.73
2018-09-26T13:07:03.825Z,21.04
2018-09-26T13:09:34.012Z,21.22
2018-09-26T13:12:04.840Z,20.73
2018-09-26T13:14:35.374Z,20.09
2018-09-26T13:17:05.747Z,20.65
2018-09-26T13:19:36.243Z,19.69
2018-09-26T13:22:07.963Z,19.24
2018-09-26T13:24:38.372Z,19.66
2018-09-26T13:27:08.985Z,19.53
2018-09-26T13:29:39.050Z,20.08
2018-09-26T13:32:09.304Z,20.02
2018-09-26T13:34:38.995Z,20.53
2018-09-26T13:37:08.857Z,20.99
2018-09-26T13:39:39.427Z,21.32
2018-09-26T13:42:11.177Z,21.47
2018-09-26T13:44:41.011Z,21.46
2018-09-26T13:47:10.699Z,22.03
2018-09-26T13:49:40.437Z,21.36
2018-09-26T13:52:10.690Z,20.95
2018-09-26T13:54:40.643Z,20.28
2018-09-26T13:57:10.634Z,20.24
2018-09-26T13:59:40.812Z,19.79
2018-09-26T14:02:11.760Z,19.17
2018-09-26T14:04:41.889Z,18.75
2018-09-26T14:07:12.916Z,19.53
2018-09-26T14:09:44.048Z,19.80
2018-09-26T14:12:16.070Z,20.35
2018-09-26T14:14:46.946Z,20.19
2018-09-26T14:17:16.920Z,20.32
2018-09-26T14:19:47.000Z,19.97
2018-09-26T14:22:17.642Z,20.00
2018-09-26T14:24:47.698Z,19.89
2018-09-26T14:27:17.741Z,20.07
2018-09-26T14:29:48.335Z,20.06
2018-09-26T14:32:19.466Z,20.68
2018-09-26T14:34:50.480Z,20.96
2018-09-26T14:37:20.607Z,20.97
2018-09-26T14:39:50.722Z,20.06
2018-09-26T14:42:21.407Z,19.00
2018-09-26T14:44:51.461Z,18.77
2018-09-26T14:47:21.563Z,18.57
2018-09-26T14:49:51.673Z,18.15
2018-09-26T14:52:22.477Z,18.30
2018-09-26T14:54:52.621Z,19.17
2018-09-26T14:57:22.753Z,19.06
2018-09-26T14:59:53.080Z,19.94
2018-09-26T15:02:24.186Z,20.06
2018-09-26T15:04:54.813Z,19.88
2018-09-26T15:07:26.915Z,18.89
2018-09-26T15:09:57.820Z,17.82
2018-09-26T15:12:28.309Z,18.28
2018-09-26T15:14:58.350Z,18.07
2018-09-26T15:17:28.398Z,17.56
2018-09-26T15:19:58.549Z,17.58
2018-09-26T15:22:28.751Z,17.30
2018-09-26T15:24:59.188Z,16.52
2018-09-26T15:27:29.276Z,16.50
2018-09-26T15:29:59.418Z,16.21
2018-09-26T15:32:29.667Z,16.34
2018-09-26T15:34:59.874Z,16.11
2018-09-26T15:37:30.006Z,15.82
2018-09-26T15:40:00.251Z,15.83
2018-09-26T15:42:31.654Z,16.45
2018-09-26T15:45:01.983Z,16.28
2018-09-26T15:47:32.188Z,17.14
2018-09-26T15:50:02.355Z,16.39
2018-09-26T15:52:32.450Z,16.40
2018-09-26T15:55:02.602Z,16.73
2018-09-26T15:57:32.826Z,16.49
2018-09-26T16:00:03.575Z,16.32
2018-09-26T16:02:34.675Z,16.24
2018-09-26T16:05:06.014Z,16.36
2018-09-26T16:07:36.168Z,16.51
2018-09-26T16:10:07.303Z,16.22
2018-09-26T16:12:38.599Z,15.95
2018-09-26T16:15:08.815Z,15.52
2018-09-26T16:17:38.949Z,15.40
2018-09-26T16:20:09.240Z,15.24
2018-09-26T16:22:40.097Z,14.98
2018-09-26T16:25:10.944Z,15.14
2018-09-26T16:27:41.093Z,15.02
2018-09-26T16:30:11.760Z,15.34
2018-09-26T16:32:42.384Z,15.48
2018-09-26T16:35:12.722Z,15.38
2018-09-26T16:37:42.972Z,14.75
2018-09-26T16:40:13.131Z,15.22
2018-09-26T16:42:45.289Z,15.26
2018-09-26T16:45:15.471Z,15.36
2018-09-26T16:47:45.694Z,15.19
2018-09-26T16:50:15.891Z,15.34
2018-09-26T16:52:46.581Z,15.65
2018-09-26T16:55:16.721Z,15.28
2018-09-26T16:57:46.899Z,15.25
2018-09-26T17:00:17.357Z,15.48
2018-09-26T17:02:47.669Z,15.35
2018-09-26T17:05:18.069Z,14.75
2018-09-26T17:07:48.382Z,15.28
2018-09-26T17:10:18.555Z,15.70
2018-09-26T17:12:49.405Z,15.97
2018-09-26T17:15:20.148Z,15.50
2018-09-26T17:17:50.218Z,14.99
2018-09-26T17:20:20.381Z,14.36
2018-09-26T17:22:52.075Z,14.61
2018-09-26T17:25:22.269Z,15.35
2018-09-26T17:27:53.303Z,15.38
2018-09-26T17:30:23.856Z,15.70
2018-09-26T17:32:53.931Z,15.37
2018-09-26T17:35:24.269Z,15.23
2018-09-26T17:37:54.806Z,15.11
2018-09-26T17:40:25.049Z,15.39
2018-09-26T17:42:55.909Z,14.87
2018-09-26T17:45:26.016Z,15.13
2018-09-26T17:47:57.265Z,14.88
2018-09-26T17:50:27.385Z,14.86
2018-09-26T17:52:58.168Z,15.13
2018-09-26T17:55:28.504Z,13.94
2018-09-26T17:57:58.919Z,13.77
2018-09-26T18:00:29.580Z,13.70
2018-09-26T18:03:00.151Z,14.21
2018-09-26T18:05:30.450Z,14.41
2018-09-26T18:08:00.578Z,14.17
2018-09-26T18:10:30.850Z,13.98
2018-09-26T18:13:02.684Z,13.80
2018-09-26T18:15:32.985Z,14.33
2018-09-26T18:18:02.988Z,13.82
2018-09-26T18:20:33.133Z,14.13
2018-09-26T18:23:04.553Z,13.90
2018-09-26T18:25:36.072Z,14.10
2018-09-26T18:28:06.247Z,13.76
2018-09-26T18:30:36.755Z,13.99
2018-09-26T18:33:09.114Z,14.33
2018-09-26T18:35:39.440Z,14.51
2018-09-26T18:38:09.906Z,13.99
2018-09-26T18:40:40.941Z,14.10
2018-09-26T18:43:12.158Z,13.58
2018-09-26T18:45:43.183Z,13.36
2018-09-26T18:48:13.354Z,13.40
2018-09-26T18:50:43.460Z,13.71
2018-09-26T18:53:14.870Z,13.90
2018-09-26T18:55:45.042Z,13.50
2018-09-26T18:58:15.498Z,13.85
2018-09-26T19:00:45.840Z,13.50
2018-09-26T19:03:16.212Z,13.40
2018-09-26T19:05:46.897Z,13.29
2018-09-26T19:08:17.088Z,13.30
2018-09-26T19:10:47.588Z,13.65
2018-09-26T19:13:18.494Z,13.58
2018-09-26T19:15:48.682Z,13.34
2018-09-26T19:18:23.192Z,12.65
2018-09-26T19:20:53.316Z,13.00
2018-09-26T19:23:24.486Z,13.33
2018-09-26T19:25:54.682Z,12.83
2018-09-26T19:28:24.854Z,12.79
2018-09-26T19:30:56.362Z,12.78
2018-09-26T19:33:27.842Z,12.34
2018-09-26T19:35:58.839Z,11.20
2018-09-26T19:38:29.722Z,12.34
2018-09-26T19:41:00.133Z,12.55
2018-09-26T19:43:31.773Z,12.74
2018-09-26T19:46:03.386Z,12.83
2018-09-26T19:48:34.576Z,12.96
2018-09-26T19:51:05.148Z,12.70
2018-09-26T19:53:36.814Z,13.00
2018-09-26T19:56:06.956Z,13.52
2018-09-26T19:58:38.183Z,13.65
2018-09-26T20:01:09.427Z,13.51
2018-09-26T20:03:40.463Z,12.55
2018-09-26T20:06:10.861Z,13.10
2018-09-26T20:08:42.699Z,13.33
2018-09-26T20:11:12.821Z,13.84
2018-09-26T20:13:43.444Z,13.22
2018-09-26T20:16:13.638Z,12.88
2018-09-26T20:18:43.757Z,13.29
2018-09-26T20:21:13.870Z,13.62
2018-09-26T20:23:45.064Z,12.98
2018-09-26T20:26:16.268Z,12.59
2018-09-26T20:28:48.423Z,12.43
2018-09-26T20:31:18.745Z,12.80
2018-09-26T20:33:50.014Z,12.32
2018-09-26T20:36:20.239Z,11.99
2018-09-26T20:38:51.209Z,12.00
2018-09-26T20:41:21.460Z,12.18
2018-09-26T20:43:52.456Z,12.02
2018-09-26T20:46:22.597Z,12.23
2018-09-26T20:48:53.070Z,12.46
2018-09-26T20:51:23.177Z,12.30
2018-09-26T20:53:53.940Z,12.79
2018-09-26T20:56:24.075Z,12.18
2018-09-26T20:58:54.335Z,11.58
2018-09-26T21:01:24.831Z,12.21
2018-09-26T21:03:55.693Z,12.58
2018-09-26T21:06:25.869Z,13.18
2018-09-26T21:08:55.981Z,12.91
2018-09-26T21:11:26.136Z,12.48
2018-09-26T21:13:56.423Z,12.09
2018-09-26T21:16:26.514Z,12.15
2018-09-26T21:18:57.199Z,12.49
2018-09-26T21:21:27.386Z,12.50
2018-09-26T21:23:58.252Z,12.94
2018-09-26T21:26:29.784Z,12.13
2018-09-26T21:29:00.686Z,12.39
2018-09-26T21:31:30.775Z,12.34
2018-09-26T21:34:02.059Z,12.40
2018-09-26T21:36:32.197Z,12.06
2018-09-26T21:39:03.428Z,12.32
2018-09-26T21:41:33.571Z,12.90
2018-09-26T21:44:03.921Z,12.79
2018-09-26T21:46:34.589Z,12.80
2018-09-26T21:49:05.668Z,13.24
2018-09-26T21:51:35.791Z,12.73
2018-09-26T21:54:06.906Z,12.83
2018-09-26T21:56:37.739Z,12.50
2018-09-26T21:59:08.175Z,12.13
2018-09-26T22:01:38.521Z,12.56
2018-09-26T22:04:09.664Z,12.23
2018-09-26T22:06:39.754Z,12.23
2018-09-26T22:09:10.199Z,12.70
2018-09-26T22:11:40.271Z,12.03
2018-09-26T22:14:10.464Z,12.32
2018-09-26T22:16:40.569Z,11.98
2018-09-26T22:19:10.694Z,11.76
2018-09-26T22:21:40.802Z,12.64
2018-09-26T22:24:11.412Z,12.30
2018-09-26T22:26:41.561Z,12.43
2018-09-26T22:29:11.604Z,12.36
2018-09-26T22:31:41.702Z,12.12
2018-09-26T22:34:12.723Z,11.59
2018-09-26T22:36:42.826Z,12.16
2018-09-26T22:39:12.907Z,12.31
2018-09-26T22:41:42.997Z,12.17
2018-09-26T22:44:13.964Z,12.16
2018-09-26T22:46:44.072Z,12.06
2018-09-26T22:49:14.143Z,12.35
2018-09-26T22:51:44.373Z,10.53
2018-09-26T22:54:14.449Z,11.86
2018-09-26T22:56:44.392Z,11.76
2018-09-26T22:59:14.331Z,11.76
2018-09-26T23:01:44.432Z,11.77
2018-09-26T23:04:15.161Z,12.31
2018-09-26T23:06:45.240Z,12.56
2018-09-26T23:09:15.273Z,12.69
2018-09-26T23:11:45.223Z,12.56
2018-09-26T23:14:15.177Z,12.57
2018-09-26T23:16:45.029Z,12.54
2018-09-26T23:19:14.962Z,12.71
2018-09-26T23:21:44.990Z,12.12
2018-09-26T23:24:15.007Z,11.87
2018-09-26T23:26:44.991Z,12.16
2018-09-26T23:29:14.971Z,12.21
2018-09-26T23:31:44.913Z,12.26
2018-09-26T23:34:14.915Z,12.29
2018-09-26T23:36:44.830Z,11.72
2018-09-26T23:39:14.752Z,12.26
2018-09-26T23:41:44.683Z,12.06
2018-09-26T23:44:14.625Z,12.40
2018-09-26T23:46:44.462Z,12.47
2018-09-26T23:49:14.424Z,12.09
2018-09-26T23:51:44.776Z,12.07
2018-09-26T23:54:15.426Z,11.50
2018-09-26T23:56:45.590Z,11.26
2018-09-26T23:59:15.208Z,11.57
